Time;durP1;ratioP1;P1;durP2;ratioP2;P2;SDS_P1;SDS_P2;PMS_P1;PMS_P2;Temp;Humidity;BMP_temperature;BMP_pressure;BME280_temperature;BME280_humidity;BME280_pressure;Samples;Min_cycle;Max_cycle;Signal;HPM_P1;HPM_P2
2022/05/31 00:01:45;;;;;;;17.83;9.30;;;11.90;99.90;;;;;;4994539;28;20027;-56
2022/05/31 00:04:11;;;;;;;15.43;9.60;;;11.80;99.90;;;;;;4994313;28;20034;-57
2022/05/31 00:06:37;;;;;;;12.75;8.95;;;11.70;99.90;;;;;;4992731;28;20108;-56
2022/05/31 00:09:03;;;;;;;14.80;10.05;;;11.70;99.90;;;;;;4994250;28;20065;-57
2022/05/31 00:11:29;;;;;;;10.60;9.63;;;11.70;99.90;;;;;;4994234;28;20030;-57
2022/05/31 00:13:55;;;;;;;13.10;9.73;;;11.70;99.90;;;;;;4993803;28;20054;-57
2022/05/31 00:16:20;;;;;;;11.10;9.13;;;11.70;99.90;;;;;;4993372;28;20113;-56
2022/05/31 00:18:46;;;;;;;15.85;9.82;;;11.70;99.90;;;;;;4994309;28;20031;-56
2022/05/31 00:21:12;;;;;;;12.70;9.75;;;11.70;99.90;;;;;;4994703;28;20050;-56
2022/05/31 00:23:42;;;;;;;13.48;9.52;;;11.70;99.90;;;;;;4994237;28;20018;-57
2022/05/31 00:26:08;;;;;;;12.85;9.23;;;11.60;99.90;;;;;;4993028;28;20062;-57
2022/05/31 00:28:34;;;;;;;13.80;9.27;;;11.60;99.90;;;;;;4994152;28;20027;-56
2022/05/31 00:31:00;;;;;;;13.80;9.10;;;11.60;99.90;;;;;;4994679;28;20030;-57
2022/05/31 00:33:27;;;;;;;13.88;9.48;;;11.50;99.90;;;;;;4993760;28;20080;-56
2022/05/31 00:35:53;;;;;;;14.07;9.65;;;11.60;99.90;;;;;;4993679;28;20039;-57
2022/05/31 00:38:20;;;;;;;12.63;10.13;;;11.50;99.90;;;;;;4993815;28;20058;-57
2022/05/31 00:40:46;;;;;;;21.02;11.38;;;11.70;99.90;;;;;;4993444;28;20023;-58
2022/05/31 00:43:16;;;;;;;20.40;11.32;;;11.60;99.90;;;;;;4993349;28;20082;-56
2022/05/31 00:45:54;;;;;;;17.45;10.88;;;11.70;99.90;;;;;;4993824;28;20022;-57
2022/05/31 00:48:23;;;;;;;16.48;10.85;;;11.60;99.90;;;;;;4993363;28;20034;-57
2022/05/31 00:50:54;;;;;;;17.73;9.65;;;11.50;99.90;;;;;;4993704;28;20053;-57
2022/05/31 00:53:29;;;;;;;14.27;9.85;;;11.50;99.90;;;;;;4993429;28;20062;-56
2022/05/31 00:55:58;;;;;;;14.85;9.98;;;11.50;99.90;;;;;;4993492;28;20066;-57
2022/05/31 00:58:31;;;;;;;15.15;9.57;;;11.50;99.90;;;;;;4993366;28;20480;-57
2022/05/31 01:01:06;;;;;;;11.68;9.90;;;11.60;99.90;;;;;;4993947;28;20053;-56
2022/05/31 01:03:36;;;;;;;10.90;9.43;;;11.60;99.90;;;;;;4993245;28;20051;-57
2022/05/31 01:06:02;;;;;;;12.90;9.63;;;11.70;99.90;;;;;;4993167;28;20033;-57
2022/05/31 01:08:28;;;;;;;14.65;9.50;;;11.70;99.90;;;;;;4993269;28;20100;-57
2022/05/31 01:10:54;;;;;;;13.85;9.38;;;11.70;99.90;;;;;;4993669;28;20070;-56
2022/05/31 01:13:19;;;;;;;17.50;9.43;;;11.70;99.90;;;;;;4992661;28;20104;-57
2022/05/31 01:15:47;;;;;;;12.48;9.60;;;11.60;99.90;;;;;;4993088;28;20041;-59
2022/05/31 01:18:14;;;;;;;12.02;9.50;;;11.80;99.90;;;;;;4993032;28;20503;-56
2022/05/31 01:20:40;;;;;;;12.27;9.50;;;11.90;99.90;;;;;;4993072;28;20030;-57
2022/05/31 01:23:17;;;;;;;15.27;9.50;;;11.80;99.90;;;;;;4992992;28;20490;-56
2022/05/31 01:26:09;;;;;;;15.63;9.45;;;11.70;99.90;;;;;;4993056;28;20109;-60
2022/05/31 01:28:37;;;;;;;15.30;9.38;;;11.40;99.90;;;;;;5008205;28;20041;-57
2022/05/31 01:31:15;;;;;;;11.82;9.13;;;11.20;99.90;;;;;;5007857;28;20026;-57
2022/05/31 01:33:46;;;;;;;11.55;8.77;;;11.10;99.90;;;;;;4992703;28;20028;-57
2022/05/31 01:36:27;;;;;;;10.60;8.25;;;11.00;99.90;;;;;;4993214;28;20029;-57
2022/05/31 01:39:01;;;;;;;16.58;9.55;;;10.90;99.90;;;;;;4992472;28;20029;-56
2022/05/31 01:41:34;;;;;;;15.68;9.18;;;10.80;99.90;;;;;;4992569;28;20026;-57
2022/05/31 01:44:02;;;;;;;16.25;10.07;;;10.80;99.90;;;;;;4992544;28;20037;-56
2022/05/31 01:46:33;;;;;;;13.35;10.18;;;10.80;99.90;;;;;;4992374;28;20471;-58
2022/05/31 01:49:06;;;;;;;12.98;9.40;;;10.80;99.90;;;;;;4992510;28;20081;-58
2022/05/31 01:51:32;;;;;;;15.50;10.05;;;10.70;99.90;;;;;;4992542;28;20027;-57
2022/05/31 01:53:58;;;;;;;15.23;10.40;;;10.80;99.90;;;;;;4992428;28;20399;-57
2022/05/31 01:56:25;;;;;;;12.38;9.98;;;10.90;99.90;;;;;;4992512;28;20030;-56
2022/05/31 01:58:53;;;;;;;20.50;10.23;;;10.90;99.90;;;;;;4992253;28;20065;-57
2022/05/31 02:01:19;;;;;;;16.38;10.48;;;11.00;99.90;;;;;;4992790;28;20031;-59
2022/05/31 02:03:46;;;;;;;10.93;9.50;;;10.90;99.90;;;;;;4992427;28;20535;-56
2022/05/31 02:06:33;;;;;;;14.98;9.38;;;10.90;99.90;;;;;;4992555;28;20551;-57
2022/05/31 02:09:00;;;;;;;14.00;10.15;;;10.90;99.90;;;;;;4992433;28;20023;-56
2022/05/31 02:11:27;;;;;;;13.38;10.80;;;11.10;99.90;;;;;;4992332;28;20030;-57
2022/05/31 02:13:53;;;;;;;14.43;10.50;;;11.30;99.90;;;;;;4991970;28;20062;-57
2022/05/31 02:16:19;;;;;;;21.00;11.65;;;11.40;99.90;;;;;;4992245;28;20030;-57
2022/05/31 02:21:35;;;;;;;14.40;11.23;;;11.40;99.90;;;;;;4992675;28;20049;-57
2022/05/31 02:24:06;;;;;;;18.07;11.87;;;11.20;99.90;;;;;;4991907;28;20022;-58
2022/05/31 02:26:32;;;;;;;15.77;11.60;;;11.20;99.90;;;;;;4993614;28;20270;-58
2022/05/31 02:28:57;;;;;;;16.88;11.27;;;11.20;99.90;;;;;;4995912;28;20112;-56
2022/05/31 02:31:23;;;;;;;20.02;13.02;;;11.40;99.90;;;;;;4996121;28;20038;-56
2022/05/31 02:33:49;;;;;;;17.35;13.30;;;11.50;99.90;;;;;;4995845;28;20037;-57
2022/05/31 02:36:15;;;;;;;21.80;12.95;;;11.60;99.90;;;;;;4995860;28;20117;-57
2022/05/31 02:38:40;;;;;;;16.88;12.77;;;11.60;99.90;;;;;;4995717;28;20125;-56
2022/05/31 02:41:06;;;;;;;19.40;13.07;;;11.50;99.90;;;;;;4995931;28;20102;-56
2022/05/31 02:43:32;;;;;;;15.13;12.45;;;11.60;99.90;;;;;;4995966;28;20057;-57
2022/05/31 02:46:01;;;;;;;19.58;12.95;;;11.70;99.90;;;;;;4995680;28;20129;-56
2022/05/31 02:48:26;;;;;;;14.48;12.07;;;11.80;99.90;;;;;;4995972;28;20026;-57
2022/05/31 02:50:52;;;;;;;18.60;12.38;;;11.70;99.90;;;;;;4995577;28;20057;-56
2022/05/31 02:53:17;;;;;;;18.05;12.65;;;11.60;99.90;;;;;;4995637;28;20041;-57
2022/05/31 02:55:43;;;;;;;19.85;13.00;;;11.60;99.90;;;;;;4995966;28;20514;-57
2022/05/31 02:58:09;;;;;;;13.82;11.88;;;11.60;99.90;;;;;;4994293;28;20599;-56
2022/05/31 03:00:34;;;;;;;22.40;13.52;;;11.70;99.90;;;;;;4995543;28;20030;-57
2022/05/31 03:03:00;;;;;;;20.40;13.25;;;11.90;99.90;;;;;;4994457;28;20045;-57
2022/05/31 03:05:25;;;;;;;18.50;14.00;;;12.00;99.90;;;;;;4995365;28;20030;-57
2022/05/31 03:07:51;;;;;;;18.70;14.45;;;12.30;99.90;;;;;;4995597;28;20030;-57
2022/05/31 03:10:17;;;;;;;20.27;14.30;;;12.50;99.90;;;;;;4996084;28;20034;-61
2022/05/31 03:12:44;;;;;;;20.67;14.82;;;12.40;99.90;;;;;;4995218;28;20081;-57
2022/05/31 03:15:14;;;;;;;17.83;13.90;;;12.40;99.90;;;;;;4995074;28;20081;-56
2022/05/31 03:17:47;;;;;;;18.17;13.90;;;12.10;99.90;;;;;;4995364;28;20038;-56
2022/05/31 03:20:21;;;;;;;18.00;14.50;;;12.30;99.90;;;;;;4995420;28;20089;-58
2022/05/31 03:22:52;;;;;;;22.45;13.60;;;12.20;99.90;;;;;;4995548;28;20034;-60
2022/05/31 03:25:22;;;;;;;19.45;13.77;;;12.10;99.90;;;;;;4994950;28;20050;-57
2022/05/31 03:27:50;;;;;;;19.83;13.25;;;12.00;99.90;;;;;;4995314;28;20077;-57
2022/05/31 03:30:15;;;;;;;21.65;15.63;;;11.90;99.90;;;;;;4995152;28;20030;-57
2022/05/31 03:32:41;;;;;;;17.52;13.55;;;12.00;99.90;;;;;;4994655;28;20052;-57
2022/05/31 03:35:08;;;;;;;16.55;13.40;;;12.10;99.90;;;;;;4994944;28;20030;-56
2022/05/31 03:37:33;;;;;;;20.85;13.65;;;12.10;99.90;;;;;;4994422;28;20033;-57
2022/05/31 03:39:59;;;;;;;16.95;12.77;;;12.00;99.90;;;;;;4994926;28;20030;-57
2022/05/31 03:42:24;;;;;;;19.30;13.60;;;12.10;99.90;;;;;;4994748;28;20026;-57
2022/05/31 03:44:54;;;;;;;17.83;13.05;;;12.10;99.90;;;;;;4993672;28;20023;-57
2022/05/31 03:47:19;;;;;;;19.45;13.30;;;12.00;99.90;;;;;;4994645;28;20506;-57
2022/05/31 03:49:45;;;;;;;21.05;13.63;;;12.00;99.90;;;;;;4995140;28;20057;-56
2022/05/31 03:52:11;;;;;;;16.58;13.77;;;12.00;99.90;;;;;;4994714;28;20484;-56
2022/05/31 03:54:37;;;;;;;19.25;13.48;;;12.00;99.90;;;;;;4994832;28;20045;-57
2022/05/31 03:57:04;;;;;;;16.33;12.98;;;12.10;99.90;;;;;;4994802;28;20084;-57
2022/05/31 03:59:37;;;;;;;19.15;13.80;;;12.20;99.90;;;;;;4994747;28;20019;-58
2022/05/31 04:02:04;;;;;;;18.35;13.25;;;12.00;99.90;;;;;;4994888;28;20053;-56
2022/05/31 04:04:30;;;;;;;18.05;12.93;;;12.10;99.90;;;;;;4994900;28;20022;-58
2022/05/31 04:06:56;;;;;;;16.88;13.13;;;12.00;99.90;;;;;;4993139;28;20384;-58
2022/05/31 04:09:21;;;;;;;18.60;12.82;;;11.80;99.90;;;;;;4994350;28;20431;-57
2022/05/31 04:11:47;;;;;;;18.45;12.77;;;11.70;99.90;;;;;;4994332;28;20026;-57
2022/05/31 04:14:13;;;;;;;21.30;13.50;;;11.50;99.90;;;;;;4994484;28;20577;-57
2022/05/31 04:16:38;;;;;;;18.35;13.43;;;11.40;99.90;;;;;;4994418;28;20026;-57
2022/05/31 04:19:04;;;;;;;18.65;13.15;;;11.50;99.90;;;;;;4994307;28;20488;-57
2022/05/31 04:21:30;;;;;;;18.48;13.63;;;11.50;99.90;;;;;;4994732;28;20018;-57
2022/05/31 04:23:58;;;;;;;19.02;12.75;;;11.60;99.90;;;;;;4993127;28;20110;-57
2022/05/31 04:26:45;;;;;;;16.55;13.82;;;11.70;99.90;;;;;;4994201;28;20027;-57
2022/05/31 04:29:11;;;;;;;19.63;13.07;;;11.70;99.90;;;;;;4993685;28;20043;-57
2022/05/31 04:31:36;;;;;;;17.92;13.40;;;11.50;99.90;;;;;;4992960;28;20023;-57
2022/05/31 04:34:03;;;;;;;20.40;13.20;;;11.60;99.90;;;;;;4993949;28;20030;-57
2022/05/31 04:36:29;;;;;;;22.23;13.85;;;11.50;99.90;;;;;;4993579;28;20053;-56
2022/05/31 04:38:54;;;;;;;22.42;13.68;;;11.80;99.90;;;;;;4993460;28;20038;-57
2022/05/31 04:41:27;;;;;;;17.55;13.88;;;11.80;99.90;;;;;;4994074;28;20034;-57
2022/05/31 04:43:54;;;;;;;16.08;13.30;;;11.80;99.90;;;;;;4993328;28;20030;-57
2022/05/31 04:46:23;;;;;;;15.23;12.82;;;11.90;99.90;;;;;;4993653;28;20026;-57
2022/05/31 04:48:49;;;;;;;19.20;12.50;;;11.80;99.90;;;;;;4992471;28;20030;-58
2022/05/31 04:51:15;;;;;;;21.58;13.90;;;11.90;99.90;;;;;;4993656;28;20029;-57
2022/05/31 04:53:42;;;;;;;20.05;14.27;;;12.10;99.90;;;;;;4993776;28;20491;-56
2022/05/31 04:56:11;;;;;;;18.30;14.02;;;12.40;99.90;;;;;;4992037;28;20031;-57
2022/05/31 04:58:37;;;;;;;19.38;13.43;;;12.40;99.90;;;;;;4993278;28;20065;-58
2022/05/31 05:01:06;;;;;;;20.95;18.60;;;12.30;99.90;;;;;;4993478;28;20043;-56
2022/05/31 05:03:34;;;;;;;23.85;14.35;;;12.30;99.90;;;;;;4993612;28;20026;-56
2022/05/31 05:06:05;;;;;;;22.38;13.45;;;12.50;99.90;;;;;;4993121;28;20093;-57
2022/05/31 05:08:31;;;;;;;19.20;12.68;;;12.60;99.90;;;;;;4993057;28;20022;-58
2022/05/31 05:11:00;;;;;;;16.73;12.90;;;12.50;99.90;;;;;;4993021;28;20038;-57
2022/05/31 05:13:26;;;;;;;18.70;12.25;;;12.50;99.90;;;;;;4992990;28;20125;-58
2022/05/31 05:15:53;;;;;;;17.27;12.75;;;12.40;99.90;;;;;;4993010;28;20476;-57
2022/05/31 05:18:19;;;;;;;27.98;13.60;;;12.40;99.90;;;;;;4993059;28;20054;-58
2022/05/31 05:20:45;;;;;;;19.13;13.10;;;12.40;99.90;;;;;;4993499;28;20026;-58
2022/05/31 05:23:11;;;;;;;17.88;12.70;;;12.50;99.90;;;;;;4992743;28;20022;-58
2022/05/31 05:25:36;;;;;;;20.42;13.20;;;12.50;99.90;;;;;;4992977;28;20054;-57
2022/05/31 05:30:38;;;;;;;15.65;12.20;;;12.40;99.90;;;;;;4991965;28;20022;-57
2022/05/31 05:30:47;;;;;;;16.25;11.68;;;12.50;99.90;;;;;;4992027;28;20061;-57
2022/05/31 05:33:13;;;;;;;19.55;12.57;;;12.70;99.90;;;;;;4991951;28;20057;-57
2022/05/31 05:35:40;;;;;;;14.55;11.50;;;13.00;99.90;;;;;;4991907;28;20487;-57
2022/05/31 05:38:06;;;;;;;14.73;10.93;;;13.00;99.90;;;;;;4991583;28;20100;-57
2022/05/31 05:40:33;;;;;;;13.88;11.32;;;12.90;99.90;;;;;;4990677;28;20391;-57
2022/05/31 05:42:59;;;;;;;15.93;10.63;;;12.70;99.90;;;;;;4991592;28;20032;-57
2022/05/31 05:45:24;;;;;;;17.23;10.48;;;12.70;99.90;;;;;;4992296;28;20018;-56
2022/05/31 05:47:50;;;;;;;13.05;9.55;;;13.10;99.90;;;;;;4991549;28;20026;-56
2022/05/31 05:50:16;;;;;;;11.88;9.20;;;13.30;99.90;;;;;;4991892;28;20081;-56
2022/05/31 05:52:46;;;;;;;13.65;9.52;;;13.70;99.90;;;;;;4991489;28;20026;-56
2022/05/31 05:55:12;;;;;;;13.50;9.23;;;13.90;99.90;;;;;;4985917;28;20026;-56
2022/05/31 05:57:37;;;;;;;12.65;9.02;;;13.90;99.90;;;;;;4982099;28;20454;-56
2022/05/31 06:00:04;;;;;;;14.45;8.50;;;13.90;99.90;;;;;;4986676;28;20089;-56
2022/05/31 06:02:32;;;;;;;13.57;8.60;;;13.90;99.90;;;;;;4980142;28;20022;-57
2022/05/31 06:05:10;;;;;;;13.43;8.60;;;13.90;99.90;;;;;;4982863;28;20037;-57
2022/05/31 06:07:46;;;;;;;13.18;9.13;;;13.80;99.90;;;;;;4978515;28;20030;-56
2022/05/31 06:10:27;;;;;;;13.20;8.70;;;13.90;99.90;;;;;;4978114;28;20503;-57
2022/05/31 06:13:00;;;;;;;13.55;9.93;;;13.90;99.90;;;;;;4980865;28;20395;-57
2022/05/31 06:15:30;;;;;;;11.98;9.57;;;13.60;99.90;;;;;;4983924;28;20038;-56
2022/05/31 06:17:59;;;;;;;13.70;9.77;;;13.60;99.90;;;;;;4975136;28;20041;-56
2022/05/31 06:20:26;;;;;;;13.68;10.13;;;13.30;99.90;;;;;;4975755;28;20027;-57
2022/05/31 06:22:52;;;;;;;15.85;10.88;;;13.20;99.90;;;;;;4982675;28;20031;-56
2022/05/31 06:25:23;;;;;;;19.30;10.10;;;13.30;99.90;;;;;;4984976;28;20102;-56
2022/05/31 06:27:50;;;;;;;14.65;10.05;;;13.60;99.90;;;;;;4980202;28;20018;-57
2022/05/31 06:30:16;;;;;;;17.73;10.88;;;13.70;99.90;;;;;;4973712;28;20051;-57
2022/05/31 06:32:42;;;;;;;17.00;10.38;;;13.80;99.90;;;;;;4974587;28;21005;-56
2022/05/31 06:35:08;;;;;;;15.68;10.48;;;13.90;99.90;;;;;;4973597;28;20037;-56
2022/05/31 06:37:33;;;;;;;16.90;10.48;;;13.90;99.90;;;;;;4967378;28;20635;-56
2022/05/31 06:39:59;;;;;;;12.68;9.77;;;13.90;99.90;;;;;;4976896;28;20034;-56
2022/05/31 06:42:25;;;;;;;12.63;8.93;;;14.10;99.90;;;;;;4963714;28;20037;-56
2022/05/31 06:44:51;;;;;;;14.73;9.68;;;14.20;99.90;;;;;;4967352;28;20903;-56
2022/05/31 06:47:16;;;;;;;12.43;8.85;;;14.60;99.90;;;;;;4962161;28;20434;-56
2022/05/31 06:49:42;;;;;;;10.32;8.30;;;15.20;99.90;;;;;;4965084;28;20137;-57
2022/05/31 06:57:43;;;;;;;15.23;7.25;;;16.80;99.90;;;;;;4967482;28;21614;-56
2022/05/31 07:00:11;;;;;;;8.60;6.25;;;18.00;99.90;;;;;;4968537;28;20034;-56
2022/05/31 07:02:36;;;;;;;13.43;6.55;;;18.80;99.90;;;;;;4964653;28;20069;-56
2022/05/31 07:05:03;;;;;;;7.78;5.63;;;19.80;99.90;;;;;;4968128;28;20462;-57
2022/05/31 07:07:28;;;;;;;11.55;5.80;;;20.60;96.60;;;;;;4971699;28;20041;-56
2022/05/31 07:09:54;;;;;;;213.80;22.92;;;21.70;95.50;;;;;;4967159;28;20046;-57
2022/05/31 07:12:20;;;;;;;25.85;7.30;;;21.90;94.50;;;;;;4966424;28;20466;-57
2022/05/31 07:14:46;;;;;;;10.05;5.05;;;22.30;93.60;;;;;;4974943;28;20066;-57
2022/05/31 07:17:12;;;;;;;8.65;4.70;;;22.90;91.20;;;;;;4977390;28;20038;-57
2022/05/31 07:19:38;;;;;;;8.63;4.43;;;22.70;90.20;;;;;;4973723;28;20236;-56
2022/05/31 07:22:04;;;;;;;9.55;4.43;;;22.90;88.00;;;;;;4970626;28;20030;-57
2022/05/31 07:24:31;;;;;;;7.43;4.50;;;22.40;86.90;;;;;;4974166;28;20100;-57
2022/05/31 07:26:57;;;;;;;7.07;4.30;;;21.70;89.70;;;;;;4976602;28;20529;-57
2022/05/31 07:29:23;;;;;;;7.53;4.07;;;21.60;88.10;;;;;;4974322;28;20490;-57
2022/05/31 07:31:49;;;;;;;10.10;4.32;;;21.60;90.60;;;;;;4971820;28;20038;-56
2022/05/31 07:34:16;;;;;;;10.00;3.90;;;21.90;90.00;;;;;;4965167;28;20053;-56
2022/05/31 07:36:42;;;;;;;7.47;3.75;;;23.10;85.40;;;;;;4969131;28;20121;-58
2022/05/31 07:39:14;;;;;;;7.40;4.22;;;23.00;82.70;;;;;;4971798;28;20031;-56
2022/05/31 07:41:39;;;;;;;5.95;3.78;;;21.60;88.50;;;;;;4971323;28;20030;-56
2022/05/31 07:44:05;;;;;;;7.53;4.00;;;21.00;90.40;;;;;;4974485;28;20080;-56
2022/05/31 07:46:31;;;;;;;6.82;3.88;;;21.20;90.20;;;;;;4977134;28;20042;-56
2022/05/31 07:48:58;;;;;;;8.10;3.97;;;21.20;90.30;;;;;;4972464;28;20030;-56
2022/05/31 07:51:24;;;;;;;7.15;4.00;;;20.50;92.00;;;;;;4979818;28;20030;-56
2022/05/31 07:53:51;;;;;;;7.35;3.63;;;20.80;90.70;;;;;;4976131;28;20089;-56
2022/05/31 07:56:17;;;;;;;5.72;3.75;;;20.30;91.20;;;;;;4976700;28;20034;-60
2022/05/31 07:58:43;;;;;;;10.23;4.10;;;21.30;91.10;;;;;;4981683;28;20088;-57
2022/05/31 08:01:13;;;;;;;6.53;3.80;;;22.30;87.30;;;;;;4972527;28;20035;-57
2022/05/31 08:03:39;;;;;;;9.73;3.25;;;23.00;85.70;;;;;;4981490;28;20038;-57
2022/05/31 08:06:11;;;;;;;4.32;2.83;;;23.70;81.90;;;;;;4969541;28;20412;-56
2022/05/31 08:08:37;;;;;;;3.78;2.40;;;23.00;82.80;;;;;;4976758;28;20038;-56
2022/05/31 08:11:05;;;;;;;10.45;2.85;;;23.70;79.80;;;;;;4970193;28;20053;-56
2022/05/31 08:13:32;;;;;;;8.95;2.92;;;24.00;76.50;;;;;;4975347;28;20121;-56
2022/05/31 08:15:59;;;;;;;9.93;3.00;;;23.80;79.50;;;;;;4965337;28;20675;-56
2022/05/31 08:18:25;;;;;;;7.72;2.70;;;24.70;76.50;;;;;;4977965;28;20113;-56
2022/05/31 08:20:56;;;;;;;11.80;2.17;;;26.10;73.90;;;;;;4978954;28;20021;-56
2022/05/31 08:23:22;;;;;;;12.85;2.50;;;27.30;68.20;;;;;;4971835;28;20030;-58
2022/05/31 08:25:47;;;;;;;10.80;2.30;;;27.50;65.60;;;;;;4976183;28;20593;-57
2022/05/31 08:28:13;;;;;;;6.40;2.10;;;28.50;63.30;;;;;;4963139;28;20049;-56
2022/05/31 08:30:38;;;;;;;4.35;2.22;;;27.80;62.50;;;;;;4970535;28;20061;-57
2022/05/31 08:33:05;;;;;;;5.97;2.40;;;26.00;64.00;;;;;;4975560;28;20092;-56
2022/05/31 08:35:31;;;;;;;6.25;2.30;;;24.90;67.90;;;;;;4977525;28;20073;-57
2022/05/31 08:37:57;;;;;;;6.40;2.30;;;23.70;69.90;;;;;;4979362;28;20130;-56
2022/05/31 08:40:23;;;;;;;4.43;2.22;;;24.50;71.30;;;;;;4979527;28;20035;-57
2022/05/31 08:42:50;;;;;;;4.97;2.45;;;25.10;67.30;;;;;;4980429;28;20153;-57
2022/05/31 08:45:33;;;;;;;6.45;2.20;;;25.70;66.90;;;;;;4974157;28;20038;-57
2022/05/31 08:48:03;;;;;;;3.42;1.77;;;26.20;65.80;;;;;;4981208;28;20018;-57
2022/05/31 08:56:56;;;;;;;5.03;1.58;;;27.00;61.30;;;;;;4973648;28;20044;-57
2022/05/31 08:56:56;;;;;;;5.88;2.38;;;27.10;61.90;;;;;;4977043;28;20482;-58
2022/05/31 08:59:43;;;;;;;3.53;1.45;;;27.30;59.70;;;;;;4979914;28;20037;-57
2022/05/31 09:02:17;;;;;;;4.13;2.08;;;27.30;60.10;;;;;;4973652;28;20413;-58
2022/05/31 09:04:47;;;;;;;4.05;1.77;;;25.60;60.90;;;;;;4971836;28;20022;-57
2022/05/31 09:07:22;;;;;;;3.85;1.70;;;25.40;62.10;;;;;;4973220;28;20498;-56
2022/05/31 09:09:52;;;;;;;2.28;1.33;;;25.20;61.10;;;;;;4977146;28;20030;-56
2022/05/31 09:12:32;;;;;;;4.25;1.67;;;25.10;61.90;;;;;;4975141;28;20034;-57
2022/05/31 09:15:04;;;;;;;4.68;1.70;;;24.90;64.10;;;;;;4980032;28;20050;-57
2022/05/31 09:17:41;;;;;;;6.13;1.60;;;25.10;62.10;;;;;;4975359;28;20034;-57
2022/05/31 09:20:38;;;;;;;4.00;1.90;;;25.40;61.90;;;;;;4971857;28;20289;-57
2022/05/31 09:23:05;;;;;;;2.88;1.50;;;26.20;59.80;;;;;;4969509;28;20269;-57
2022/05/31 09:25:39;;;;;;;2.92;1.27;;;26.00;58.30;;;;;;4969329;28;20070;-57
2022/05/31 09:28:16;;;;;;;3.13;1.15;;;27.20;57.00;;;;;;4979853;28;20030;-57
2022/05/31 09:30:45;;;;;;;4.18;1.20;;;26.30;57.60;;;;;;4980953;28;20728;-57
2022/05/31 09:33:33;;;;;;;4.45;1.52;;;26.70;58.50;;;;;;4973867;28;20053;-58
2022/05/31 09:36:24;;;;;;;2.53;1.52;;;26.60;57.30;;;;;;4981064;28;20034;-57
2022/05/31 09:39:04;;;;;;;4.32;1.40;;;25.60;58.60;;;;;;4978881;28;20026;-58
2022/05/31 09:41:42;;;;;;;5.05;1.27;;;25.40;59.20;;;;;;4976334;28;20030;-57
2022/05/31 09:44:20;;;;;;;3.58;1.67;;;25.10;59.70;;;;;;4978239;28;20044;-57
2022/05/31 09:47:04;;;;;;;2.63;1.25;;;24.20;58.30;;;;;;4974436;28;20198;-57
2022/05/31 09:49:37;;;;;;;3.65;1.63;;;24.00;59.20;;;;;;4971131;28;20061;-57
2022/05/31 09:52:20;;;;;;;4.93;1.33;;;23.60;58.50;;;;;;4972030;28;20034;-57
2022/05/31 09:58:19;;;;;;;5.50;1.60;;;23.70;60.70;;;;;;4971155;28;20101;-57
2022/05/31 10:01:04;;;;;;;2.97;1.52;;;24.60;60.00;;;;;;4976247;28;20038;-57
2022/05/31 10:03:36;;;;;;;3.88;2.13;;;24.30;60.20;;;;;;4977659;28;20045;-57
2022/05/31 10:06:13;;;;;;;4.10;2.10;;;24.30;59.60;;;;;;4976540;28;20399;-57
2022/05/31 10:08:38;;;;;;;4.22;1.77;;;23.80;60.60;;;;;;4978840;28;20383;-57
2022/05/31 10:11:10;;;;;;;3.22;1.40;;;23.50;61.20;;;;;;4977485;28;20026;-56
2022/05/31 10:13:53;;;;;;;4.97;1.30;;;23.40;58.00;;;;;;4974323;28;20055;-57
2022/05/31 10:16:32;;;;;;;2.10;1.23;;;23.70;57.90;;;;;;4978431;28;20034;-57
2022/05/31 10:19:00;;;;;;;2.88;1.38;;;24.30;57.40;;;;;;4978082;28;20631;-57
2022/05/31 10:21:31;;;;;;;4.35;1.60;;;25.30;57.90;;;;;;4990795;28;20030;-57
2022/05/31 10:24:20;;;;;;;2.55;1.52;;;24.70;56.80;;;;;;4965182;28;20061;-58
2022/05/31 10:27:06;;;;;;;4.07;1.58;;;23.80;59.20;;;;;;4971822;28;20042;-57
2022/05/31 10:29:49;;;;;;;6.38;1.67;;;23.20;61.70;;;;;;4973503;28;20112;-56
2022/05/31 10:32:28;;;;;;;2.40;1.38;;;23.30;62.30;;;;;;4976895;28;20428;-57
2022/05/31 10:35:13;;;;;;;3.65;1.27;;;22.80;58.90;;;;;;4970489;28;20088;-57
2022/05/31 10:37:48;;;;;;;6.15;1.38;;;23.20;61.00;;;;;;4970590;28;20039;-57
2022/05/31 10:40:22;;;;;;;1.80;1.30;;;23.70;59.80;;;;;;4964427;28;20115;-56
2022/05/31 10:42:52;;;;;;;7.78;1.90;;;23.00;61.80;;;;;;4972764;28;20034;-57
2022/05/31 10:45:31;;;;;;;4.07;1.40;;;23.80;59.50;;;;;;4972369;28;20022;-57
2022/05/31 10:47:58;;;;;;;4.40;1.20;;;23.70;59.80;;;;;;4973729;28;20030;-57
2022/05/31 10:50:55;;;;;;;3.08;1.20;;;24.40;58.60;;;;;;4980392;28;20037;-58
2022/05/31 10:53:37;;;;;;;6.13;1.55;;;26.10;56.40;;;;;;4979950;28;20379;-58
2022/05/31 10:56:15;;;;;;;7.13;1.38;;;26.20;55.10;;;;;;4982276;28;20500;-58
2022/05/31 10:58:42;;;;;;;5.95;1.40;;;26.80;55.00;;;;;;4976043;28;20771;-58
2022/05/31 11:01:36;;;;;;;5.57;1.30;;;27.70;53.30;;;;;;4974094;28;20921;-58
2022/05/31 11:04:35;;;;;;;3.78;1.27;;;27.70;53.20;;;;;;4975343;28;20456;-58
2022/05/31 11:07:23;;;;;;;2.83;1.10;;;26.50;52.20;;;;;;4963741;28;20553;-57
2022/05/31 11:12:56;;;;;;;2.55;1.23;;;25.30;55.90;;;;;;4965104;28;20049;-58
2022/05/31 11:15:50;;;;;;;1.73;0.90;;;24.90;55.60;;;;;;4971089;28;20377;-57
2022/05/31 11:18:37;;;;;;;3.13;1.00;;;24.70;56.00;;;;;;4963763;28;20030;-57
2022/05/31 11:21:25;;;;;;;2.25;0.90;;;24.50;57.50;;;;;;4964571;28;20114;-57
2022/05/31 11:24:12;;;;;;;2.33;1.00;;;24.90;53.90;;;;;;4970487;28;20459;-57
2022/05/31 11:26:56;;;;;;;1.67;0.90;;;25.60;56.20;;;;;;4974662;28;20038;-57
2022/05/31 11:29:49;;;;;;;3.50;1.10;;;25.70;55.90;;;;;;4976781;28;21387;-58
2022/05/31 11:32:44;;;;;;;3.08;1.50;;;25.30;54.20;;;;;;4975383;28;20034;-57
2022/05/31 11:35:26;;;;;;;2.75;1.10;;;24.20;54.80;;;;;;4976484;28;20040;-57
2022/05/31 11:38:15;;;;;;;3.88;1.00;;;24.10;57.20;;;;;;4980930;28;20034;-57
2022/05/31 11:41:02;;;;;;;4.00;1.00;;;24.30;55.80;;;;;;4981337;28;20088;-57
2022/05/31 11:43:41;;;;;;;2.42;1.00;;;24.50;56.10;;;;;;4982124;28;20057;-57
2022/05/31 11:46:17;;;;;;;1.63;1.30;;;24.70;55.80;;;;;;4982803;28;20411;-57
2022/05/31 11:48:59;;;;;;;1.65;1.10;;;24.90;54.00;;;;;;4979746;28;20026;-57
2022/05/31 11:51:25;;;;;;;;;;;25.20;55.30;;;;;;4984442;28;20041;-57
2022/05/31 11:54:27;;;;;;;5.55;1.40;;;25.10;53.90;;;;;;4985696;28;19918;-57
2022/05/31 11:56:56;;;;;;;2.22;1.38;;;24.00;55.20;;;;;;4980889;28;20093;-59
2022/05/31 11:59:25;;;;;;;2.80;1.23;;;22.80;58.20;;;;;;4975993;28;20030;-58
2022/05/31 12:02:02;;;;;;;2.97;1.48;;;22.30;59.50;;;;;;4982386;28;20030;-59
2022/05/31 12:04:38;;;;;;;5.38;1.40;;;22.60;61.10;;;;;;4982274;28;20038;-58
2022/05/31 12:07:16;;;;;;;1.27;1.10;;;23.10;59.20;;;;;;4983582;28;20057;-57
2022/05/31 12:10:01;;;;;;;3.42;1.02;;;23.00;58.10;;;;;;4980096;28;20023;-57
2022/05/31 12:12:31;;;;;;;3.80;1.13;;;23.40;58.70;;;;;;4978164;28;20049;-57
2022/05/31 12:15:30;;;;;;;6.95;1.60;;;24.00;57.90;;;;;;4980408;28;20066;-57
2022/05/31 12:18:08;;;;;;;7.40;1.10;;;22.50;60.20;;;;;;4974388;28;20112;-57
2022/05/31 12:20:42;;;;;;;3.38;1.15;;;21.90;60.40;;;;;;4972622;28;20018;-57
2022/05/31 12:23:26;;;;;;;3.92;1.00;;;21.90;61.80;;;;;;4978176;28;20029;-58
2022/05/31 12:25:57;;;;;;;4.82;1.10;;;21.70;59.90;;;;;;4979069;28;20065;-57
2022/05/31 12:28:46;;;;;;;2.10;0.90;;;21.70;61.00;;;;;;4977676;28;20038;-57
2022/05/31 12:31:19;;;;;;;4.95;1.08;;;21.20;59.50;;;;;;4978706;28;20398;-56
2022/05/31 12:33:46;;;;;;;1.27;0.90;;;20.70;61.30;;;;;;4978427;28;20603;-56
2022/05/31 12:36:19;;;;;;;5.80;1.00;;;20.70;62.70;;;;;;4975207;28;20022;-56
2022/05/31 12:38:54;;;;;;;2.88;1.00;;;20.50;61.20;;;;;;4974396;28;20034;-59
2022/05/31 12:41:39;;;;;;;3.83;0.75;;;20.60;62.50;;;;;;4973601;28;20434;-57
2022/05/31 12:44:28;;;;;;;2.63;0.80;;;22.20;63.30;;;;;;4973345;28;20169;-57
2022/05/31 12:46:55;;;;;;;3.33;1.10;;;23.00;58.90;;;;;;4975252;28;20030;-56
2022/05/31 12:49:27;;;;;;;2.70;0.80;;;23.60;57.00;;;;;;4976283;28;20364;-57
2022/05/31 12:52:09;;;;;;;;;;;23.60;57.80;;;;;;4973390;28;20038;-57
2022/05/31 12:54:48;;;;;;;4.03;1.05;;;23.90;58.00;;;;;;4974797;28;19925;-58
2022/05/31 13:00:33;;;;;;;1.77;0.80;;;23.30;58.70;;;;;;4972772;28;20134;-57
2022/05/31 13:03:00;;;;;;;1.65;0.90;;;24.30;57.60;;;;;;4967869;28;20498;-56
2022/05/31 13:05:40;;;;;;;2.78;0.80;;;25.30;54.70;;;;;;4979141;28;20482;-58
2022/05/31 13:08:18;;;;;;;3.45;0.85;;;25.80;53.50;;;;;;4971380;28;20037;-57
2022/05/31 13:19:37;;;;;;;1.58;0.80;;;27.40;52.60;;;;;;4977837;28;20100;-57
2022/05/31 13:22:08;;;;;;;4.35;1.05;;;27.50;52.80;;;;;;4979751;28;20031;-57
2022/05/31 13:24:38;;;;;;;2.50;0.63;;;28.70;51.00;;;;;;4978016;28;20458;-57
2022/05/31 13:27:07;;;;;;;1.58;0.80;;;28.20;50.70;;;;;;4981151;28;20058;-57
2022/05/31 13:29:33;;;;;;;1.33;0.88;;;27.10;50.90;;;;;;4984523;28;20030;-57